sensor_id;sensor_type;location;lat;lon;timestamp;pressure;altitude;pressure_sealevel;temperature;humidity
51053;BME280;37093;37.716;-122.060;2023-08-06T00:00:25;99804.89;;;31.20;27.15
51053;BME280;37093;37.716;-122.060;2023-08-06T00:02:55;99802.09;;;31.51;26.93
51053;BME280;37093;37.716;-122.060;2023-08-06T00:05:23;99793.31;;;31.36;26.71
51053;BME280;37093;37.716;-122.060;2023-08-06T00:07:51;99793.15;;;31.15;27.23
51053;BME280;37093;37.716;-122.060;2023-08-06T00:10:20;99793.43;;;31.09;27.75
51053;BME280;37093;37.716;-122.060;2023-08-06T00:12:48;99791.28;;;31.17;27.60
51053;BME280;37093;37.716;-122.060;2023-08-06T00:15:17;99788.18;;;31.02;27.15
51053;BME280;37093;37.716;-122.060;2023-08-06T00:17:45;99786.29;;;30.85;27.84
51053;BME280;37093;37.716;-122.060;2023-08-06T00:20:14;99788.49;;;30.57;28.46
51053;BME280;37093;37.716;-122.060;2023-08-06T00:22:42;99785.73;;;30.44;28.93
51053;BME280;37093;37.716;-122.060;2023-08-06T00:25:11;99787.42;;;30.46;28.80
51053;BME280;37093;37.716;-122.060;2023-08-06T00:27:39;99783.88;;;30.13;29.06
51053;BME280;37093;37.716;-122.060;2023-08-06T00:30:08;99786.16;;;30.43;28.18
51053;BME280;37093;37.716;-122.060;2023-08-06T00:32:37;99784.73;;;30.65;28.37
51053;BME280;37093;37.716;-122.060;2023-08-06T00:35:07;99785.68;;;30.25;28.46
51053;BME280;37093;37.716;-122.060;2023-08-06T00:37:35;99780.81;;;30.02;29.07
51053;BME280;37093;37.716;-122.060;2023-08-06T00:40:04;99779.59;;;30.61;28.38
51053;BME280;37093;37.716;-122.060;2023-08-06T00:42:33;99771.67;;;29.12;30.13
51053;BME280;37093;37.716;-122.060;2023-08-06T00:45:02;99769.85;;;29.25;29.47
51053;BME280;37093;37.716;-122.060;2023-08-06T00:47:30;99768.83;;;29.86;28.50
51053;BME280;37093;37.716;-122.060;2023-08-06T00:49:59;99764.47;;;29.76;28.98
51053;BME280;37093;37.716;-122.060;2023-08-06T00:52:27;99765.17;;;29.44;29.11
51053;BME280;37093;37.716;-122.060;2023-08-06T00:54:55;99765.13;;;29.70;28.70
51053;BME280;37093;37.716;-122.060;2023-08-06T00:57:25;99769.19;;;29.69;28.91
51053;BME280;37093;37.716;-122.060;2023-08-06T00:59:54;99767.41;;;29.65;29.21
51053;BME280;37093;37.716;-122.060;2023-08-06T01:02:22;99763.72;;;29.18;29.61
51053;BME280;37093;37.716;-122.060;2023-08-06T01:04:51;99765.67;;;28.41;31.19
51053;BME280;37093;37.716;-122.060;2023-08-06T01:07:30;99763.73;;;29.16;30.06
51053;BME280;37093;37.716;-122.060;2023-08-06T01:10:18;99759.32;;;29.12;30.66
51053;BME280;37093;37.716;-122.060;2023-08-06T01:12:54;99759.35;;;28.90;31.08
51053;BME280;37093;37.716;-122.060;2023-08-06T01:15:29;99758.88;;;28.18;31.62
51053;BME280;37093;37.716;-122.060;2023-08-06T01:18:00;99758.13;;;27.22;32.40
51053;BME280;37093;37.716;-122.060;2023-08-06T01:20:29;99755.51;;;28.22;31.55
51053;BME280;37093;37.716;-122.060;2023-08-06T01:22:58;99758.76;;;28.80;31.05
51053;BME280;37093;37.716;-122.060;2023-08-06T01:25:32;99758.88;;;28.29;31.00
51053;BME280;37093;37.716;-122.060;2023-08-06T01:28:07;99753.06;;;28.29;30.64
51053;BME280;37093;37.716;-122.060;2023-08-06T01:30:42;99750.11;;;28.41;30.89
51053;BME280;37093;37.716;-122.060;2023-08-06T01:33:14;99753.04;;;28.41;30.79
51053;BME280;37093;37.716;-122.060;2023-08-06T01:35:45;99755.53;;;28.23;31.32
51053;BME280;37093;37.716;-122.060;2023-08-06T01:38:14;99760.52;;;28.53;30.58
51053;BME280;37093;37.716;-122.060;2023-08-06T01:40:42;99761.26;;;28.11;30.99
51053;BME280;37093;37.716;-122.060;2023-08-06T01:43:11;99763.14;;;28.02;31.18
51053;BME280;37093;37.716;-122.060;2023-08-06T01:45:39;99762.82;;;27.69;31.58
51053;BME280;37093;37.716;-122.060;2023-08-06T01:48:08;99761.41;;;27.43;31.98
51053;BME280;37093;37.716;-122.060;2023-08-06T01:50:36;99761.27;;;26.65;32.52
51053;BME280;37093;37.716;-122.060;2023-08-06T01:53:05;99759.87;;;27.57;31.88
51053;BME280;37093;37.716;-122.060;2023-08-06T01:55:33;99758.72;;;27.47;31.60
51053;BME280;37093;37.716;-122.060;2023-08-06T01:58:02;99758.99;;;27.96;31.69
51053;BME280;37093;37.716;-122.060;2023-08-06T02:00:30;99757.73;;;27.93;31.71
51053;BME280;37093;37.716;-122.060;2023-08-06T02:02:58;99755.87;;;27.69;31.92
51053;BME280;37093;37.716;-122.060;2023-08-06T02:05:28;99757.73;;;27.03;32.39
51053;BME280;37093;37.716;-122.060;2023-08-06T02:07:56;99758.15;;;28.12;31.87
51053;BME280;37093;37.716;-122.060;2023-08-06T02:10:25;99758.72;;;27.46;32.40
51053;BME280;37093;37.716;-122.060;2023-08-06T02:12:54;99758.65;;;27.64;32.06
51053;BME280;37093;37.716;-122.060;2023-08-06T02:15:22;99760.88;;;27.73;31.98
51053;BME280;37093;37.716;-122.060;2023-08-06T02:17:51;99758.70;;;27.91;31.92
51053;BME280;37093;37.716;-122.060;2023-08-06T02:20:19;99760.15;;;27.03;33.01
51053;BME280;37093;37.716;-122.060;2023-08-06T02:22:48;99757.85;;;27.47;32.58
51053;BME280;37093;37.716;-122.060;2023-08-06T02:25:16;99762.01;;;26.82;33.79
51053;BME280;37093;37.716;-122.060;2023-08-06T02:27:45;99764.82;;;27.40;33.60
51053;BME280;37093;37.716;-122.060;2023-08-06T02:30:13;99768.28;;;27.18;33.18
51053;BME280;37093;37.716;-122.060;2023-08-06T02:32:42;99776.18;;;26.73;33.81
51053;BME280;37093;37.716;-122.060;2023-08-06T02:35:11;99777.72;;;26.68;34.42
51053;BME280;37093;37.716;-122.060;2023-08-06T02:37:39;99780.88;;;26.62;34.57
51053;BME280;37093;37.716;-122.060;2023-08-06T02:40:09;99786.46;;;25.76;34.97
51053;BME280;37093;37.716;-122.060;2023-08-06T02:42:37;99785.97;;;26.12;35.05
51053;BME280;37093;37.716;-122.060;2023-08-06T02:45:07;99784.16;;;25.26;36.61
51053;BME280;37093;37.716;-122.060;2023-08-06T02:47:35;99788.40;;;25.80;35.87
51053;BME280;37093;37.716;-122.060;2023-08-06T02:50:04;99792.01;;;25.76;36.22
51053;BME280;37093;37.716;-122.060;2023-08-06T02:52:33;99794.48;;;25.75;36.19
51053;BME280;37093;37.716;-122.060;2023-08-06T02:55:01;99798.74;;;25.12;37.19
51053;BME280;37093;37.716;-122.060;2023-08-06T02:57:30;99802.26;;;25.47;36.28
51053;BME280;37093;37.716;-122.060;2023-08-06T03:00:00;99809.52;;;25.53;36.96
51053;BME280;37093;37.716;-122.060;2023-08-06T03:02:29;99808.36;;;25.28;36.73
51053;BME280;37093;37.716;-122.060;2023-08-06T03:04:57;99808.01;;;24.79;37.92
51053;BME280;37093;37.716;-122.060;2023-08-06T03:07:25;99811.68;;;24.98;37.81
51053;BME280;37093;37.716;-122.060;2023-08-06T03:09:55;99812.47;;;24.91;37.86
51053;BME280;37093;37.716;-122.060;2023-08-06T03:12:23;99809.80;;;24.72;37.99
51053;BME280;37093;37.716;-122.060;2023-08-06T03:14:51;99810.89;;;24.83;37.50
51053;BME280;37093;37.716;-122.060;2023-08-06T03:17:24;99811.88;;;24.67;37.82
51053;BME280;37093;37.716;-122.060;2023-08-06T03:19:52;99818.01;;;25.03;37.20
51053;BME280;37093;37.716;-122.060;2023-08-06T03:22:21;99824.15;;;24.79;37.44
51053;BME280;37093;37.716;-122.060;2023-08-06T03:24:51;99822.78;;;24.85;37.38
51053;BME280;37093;37.716;-122.060;2023-08-06T03:27:19;99823.58;;;24.96;37.20
51053;BME280;37093;37.716;-122.060;2023-08-06T03:29:49;99822.49;;;24.87;37.46
51053;BME280;37093;37.716;-122.060;2023-08-06T03:32:18;99820.28;;;24.57;37.51
51053;BME280;37093;37.716;-122.060;2023-08-06T03:34:47;99820.36;;;24.80;37.78
51053;BME280;37093;37.716;-122.060;2023-08-06T03:37:15;99818.77;;;24.78;37.29
51053;BME280;37093;37.716;-122.060;2023-08-06T03:39:43;99825.75;;;24.57;37.98
51053;BME280;37093;37.716;-122.060;2023-08-06T03:42:12;99831.06;;;24.15;38.46
51053;BME280;37093;37.716;-122.060;2023-08-06T03:44:41;99831.71;;;24.40;38.22
51053;BME280;37093;37.716;-122.060;2023-08-06T03:47:11;99833.68;;;24.30;38.22
51053;BME280;37093;37.716;-122.060;2023-08-06T03:49:39;99834.82;;;24.24;38.66
51053;BME280;37093;37.716;-122.060;2023-08-06T03:52:07;99838.77;;;24.36;38.49
51053;BME280;37093;37.716;-122.060;2023-08-06T03:54:36;99843.60;;;23.89;39.13
51053;BME280;37093;37.716;-122.060;2023-08-06T03:57:05;99845.04;;;24.12;38.87
51053;BME280;37093;37.716;-122.060;2023-08-06T03:59:33;99846.41;;;23.89;40.02
51053;BME280;37093;37.716;-122.060;2023-08-06T04:02:01;99844.31;;;23.68;39.74
51053;BME280;37093;37.716;-122.060;2023-08-06T04:04:30;99851.74;;;24.04;39.16
51053;BME280;37093;37.716;-122.060;2023-08-06T04:06:58;99853.51;;;23.68;39.66
51053;BME280;37093;37.716;-122.060;2023-08-06T04:09:29;99852.77;;;24.00;39.49
51053;BME280;37093;37.716;-122.060;2023-08-06T04:11:57;99853.58;;;23.63;39.88
51053;BME280;37093;37.716;-122.060;2023-08-06T04:14:27;99854.12;;;23.68;39.85
51053;BME280;37093;37.716;-122.060;2023-08-06T04:16:55;99861.69;;;23.65;40.48
51053;BME280;37093;37.716;-122.060;2023-08-06T04:19:24;99867.63;;;23.25;40.54
51053;BME280;37093;37.716;-122.060;2023-08-06T04:21:52;99868.45;;;23.50;40.12
51053;BME280;37093;37.716;-122.060;2023-08-06T04:24:21;99872.46;;;23.63;40.04
51053;BME280;37093;37.716;-122.060;2023-08-06T04:26:49;99873.72;;;23.14;40.21
51053;BME280;37093;37.716;-122.060;2023-08-06T04:29:17;99875.35;;;23.48;40.25
51053;BME280;37093;37.716;-122.060;2023-08-06T04:31:46;99882.81;;;23.66;40.14
51053;BME280;37093;37.716;-122.060;2023-08-06T04:34:14;99887.11;;;23.29;41.26
51053;BME280;37093;37.716;-122.060;2023-08-06T04:36:43;99889.00;;;23.30;41.19
51053;BME280;37093;37.716;-122.060;2023-08-06T04:39:11;99894.52;;;23.13;42.39
51053;BME280;37093;37.716;-122.060;2023-08-06T04:41:40;99894.08;;;22.96;42.09
51053;BME280;37093;37.716;-122.060;2023-08-06T04:44:09;99896.06;;;22.99;41.36
51053;BME280;37093;37.716;-122.060;2023-08-06T04:46:37;99896.68;;;23.33;41.37
51053;BME280;37093;37.716;-122.060;2023-08-06T04:49:06;99900.65;;;23.30;41.37
51053;BME280;37093;37.716;-122.060;2023-08-06T04:51:34;99901.74;;;23.34;41.85
51053;BME280;37093;37.716;-122.060;2023-08-06T04:54:02;99900.14;;;23.27;42.10
51053;BME280;37093;37.716;-122.060;2023-08-06T04:56:30;99906.25;;;23.05;42.15
51053;BME280;37093;37.716;-122.060;2023-08-06T04:58:59;99906.89;;;22.47;43.59
51053;BME280;37093;37.716;-122.060;2023-08-06T05:01:28;99907.09;;;22.79;43.56
51053;BME280;37093;37.716;-122.060;2023-08-06T05:03:56;99907.54;;;22.64;43.49
51053;BME280;37093;37.716;-122.060;2023-08-06T05:06:24;99909.59;;;22.55;43.31
51053;BME280;37093;37.716;-122.060;2023-08-06T05:08:53;99906.09;;;22.60;42.57
51053;BME280;37093;37.716;-122.060;2023-08-06T05:11:21;99901.96;;;22.73;42.49
51053;BME280;37093;37.716;-122.060;2023-08-06T05:13:50;99900.69;;;22.53;42.83
51053;BME280;37093;37.716;-122.060;2023-08-06T05:16:18;99898.09;;;22.72;42.03
51053;BME280;37093;37.716;-122.060;2023-08-06T05:18:46;99901.35;;;22.35;42.68
51053;BME280;37093;37.716;-122.060;2023-08-06T05:21:14;99896.43;;;22.58;42.48
51053;BME280;37093;37.716;-122.060;2023-08-06T05:23:43;99891.97;;;22.69;43.34
51053;BME280;37093;37.716;-122.060;2023-08-06T05:26:11;99894.70;;;22.14;44.13
51053;BME280;37093;37.716;-122.060;2023-08-06T05:28:40;99890.92;;;22.17;44.06
51053;BME280;37093;37.716;-122.060;2023-08-06T05:31:08;99895.95;;;22.05;43.88
51053;BME280;37093;37.716;-122.060;2023-08-06T05:50:17;99896.11;;;21.66;47.63
51053;BME280;37093;37.716;-122.060;2023-08-06T05:52:45;99895.55;;;19.97;47.07
51053;BME280;37093;37.716;-122.060;2023-08-06T05:55:12;99897.94;;;21.06;43.65
51053;BME280;37093;37.716;-122.060;2023-08-06T05:57:40;99898.40;;;22.23;44.57
51053;BME280;37093;37.716;-122.060;2023-08-06T06:00:10;99895.46;;;22.04;44.61
51053;BME280;37093;37.716;-122.060;2023-08-06T06:02:38;99892.93;;;22.29;45.21
51053;BME280;37093;37.716;-122.060;2023-08-06T06:05:07;99892.07;;;21.96;45.49
51053;BME280;37093;37.716;-122.060;2023-08-06T06:07:35;99882.90;;;21.70;46.78
51053;BME280;37093;37.716;-122.060;2023-08-06T06:10:04;99883.35;;;21.23;46.56
51053;BME280;37093;37.716;-122.060;2023-08-06T06:12:34;99886.85;;;21.41;47.15
51053;BME280;37093;37.716;-122.060;2023-08-06T06:15:02;99884.76;;;21.44;46.13
51053;BME280;37093;37.716;-122.060;2023-08-06T06:17:30;99887.89;;;21.33;47.63
51053;BME280;37093;37.716;-122.060;2023-08-06T06:19:58;99888.98;;;21.07;47.02
51053;BME280;37093;37.716;-122.060;2023-08-06T06:22:26;99884.92;;;21.47;46.92
51053;BME280;37093;37.716;-122.060;2023-08-06T06:24:55;99884.22;;;21.76;46.11
51053;BME280;37093;37.716;-122.060;2023-08-06T06:27:23;99884.86;;;21.63;46.81
51053;BME280;37093;37.716;-122.060;2023-08-06T06:29:51;99886.39;;;21.73;45.81
51053;BME280;37093;37.716;-122.060;2023-08-06T06:32:20;99885.19;;;21.57;46.67
51053;BME280;37093;37.716;-122.060;2023-08-06T06:34:48;99883.68;;;21.54;46.11
51053;BME280;37093;37.716;-122.060;2023-08-06T06:37:16;99884.66;;;21.50;46.32
51053;BME280;37093;37.716;-122.060;2023-08-06T06:39:45;99888.75;;;21.23;47.00
51053;BME280;37093;37.716;-122.060;2023-08-06T06:42:13;99889.54;;;21.37;46.30
51053;BME280;37093;37.716;-122.060;2023-08-06T06:44:42;99885.24;;;21.43;46.28
51053;BME280;37093;37.716;-122.060;2023-08-06T06:47:10;99892.92;;;21.39;46.29
51053;BME280;37093;37.716;-122.060;2023-08-06T06:49:38;99894.14;;;21.50;45.25
51053;BME280;37093;37.716;-122.060;2023-08-06T06:52:07;99894.02;;;21.26;47.05
51053;BME280;37093;37.716;-122.060;2023-08-06T06:54:35;99894.55;;;21.12;46.50
51053;BME280;37093;37.716;-122.060;2023-08-06T06:57:04;99893.41;;;21.22;46.12
51053;BME280;37093;37.716;-122.060;2023-08-06T06:59:32;99893.63;;;21.53;46.08
51053;BME280;37093;37.716;-122.060;2023-08-06T07:01:11;99891.41;;;20.93;46.26
51053;BME280;37093;37.716;-122.060;2023-08-06T07:03:40;99891.83;;;20.46;44.17
51053;BME280;37093;37.716;-122.060;2023-08-06T07:06:08;99894.90;;;22.13;42.50
51053;BME280;37093;37.716;-122.060;2023-08-06T07:08:37;99895.83;;;22.19;43.54
51053;BME280;37093;37.716;-122.060;2023-08-06T07:11:07;99895.65;;;21.61;44.70
51053;BME280;37093;37.716;-122.060;2023-08-06T07:13:36;99889.17;;;21.78;44.79
51053;BME280;37093;37.716;-122.060;2023-08-06T07:16:05;99890.45;;;21.63;44.94
51053;BME280;37093;37.716;-122.060;2023-08-06T07:18:33;99895.87;;;21.45;45.54
51053;BME280;37093;37.716;-122.060;2023-08-06T07:21:02;99895.16;;;21.41;45.71
51053;BME280;37093;37.716;-122.060;2023-08-06T07:23:30;99893.53;;;21.30;45.70
51053;BME280;37093;37.716;-122.060;2023-08-06T07:25:58;99892.24;;;21.22;46.07
51053;BME280;37093;37.716;-122.060;2023-08-06T07:28:27;99887.64;;;20.92;46.29
51053;BME280;37093;37.716;-122.060;2023-08-06T07:30:55;99883.82;;;20.93;47.12
51053;BME280;37093;37.716;-122.060;2023-08-06T07:33:23;99881.31;;;20.08;48.90
51053;BME280;37093;37.716;-122.060;2023-08-06T07:35:52;99883.36;;;20.84;47.37
51053;BME280;37093;37.716;-122.060;2023-08-06T07:38:20;99886.16;;;20.79;46.89
51053;BME280;37093;37.716;-122.060;2023-08-06T07:40:48;99885.99;;;20.80;46.81
51053;BME280;37093;37.716;-122.060;2023-08-06T07:43:17;99884.93;;;21.04;46.64
51053;BME280;37093;37.716;-122.060;2023-08-06T07:45:45;99885.01;;;20.68;46.82
51053;BME280;37093;37.716;-122.060;2023-08-06T07:48:14;99884.38;;;20.64;46.99
51053;BME280;37093;37.716;-122.060;2023-08-06T07:50:42;99883.06;;;20.73;46.79
51053;BME280;37093;37.716;-122.060;2023-08-06T07:53:11;99886.28;;;20.62;46.76
51053;BME280;37093;37.716;-122.060;2023-08-06T07:55:40;99885.90;;;20.72;46.39
51053;BME280;37093;37.716;-122.060;2023-08-06T07:58:08;99885.84;;;21.02;45.74
51053;BME280;37093;37.716;-122.060;2023-08-06T08:00:36;99889.92;;;20.42;47.45
51053;BME280;37093;37.716;-122.060;2023-08-06T08:03:04;99884.48;;;20.62;47.28
51053;BME280;37093;37.716;-122.060;2023-08-06T08:05:33;99881.03;;;20.85;46.87
51053;BME280;37093;37.716;-122.060;2023-08-06T08:08:02;99881.75;;;20.96;46.71
51053;BME280;37093;37.716;-122.060;2023-08-06T08:10:31;99881.08;;;20.72;46.69
51053;BME280;37093;37.716;-122.060;2023-08-06T08:12:59;99875.84;;;20.73;46.82
51053;BME280;37093;37.716;-122.060;2023-08-06T08:15:29;99874.32;;;20.77;45.96
51053;BME280;37093;37.716;-122.060;2023-08-06T08:17:57;99877.47;;;21.02;46.23
51053;BME280;37093;37.716;-122.060;2023-08-06T08:20:27;99875.39;;;20.47;46.07
51053;BME280;37093;37.716;-122.060;2023-08-06T08:22:55;99873.35;;;20.81;45.77
51053;BME280;37093;37.716;-122.060;2023-08-06T08:25:24;99870.95;;;20.79;45.66
51053;BME280;37093;37.716;-122.060;2023-08-06T08:27:53;99872.57;;;20.80;45.79
51053;BME280;37093;37.716;-122.060;2023-08-06T08:30:22;99872.07;;;20.45;46.31
51053;BME280;37093;37.716;-122.060;2023-08-06T08:32:50;99870.85;;;20.98;45.30
51053;BME280;37093;37.716;-122.060;2023-08-06T08:35:19;99870.63;;;20.68;45.74
51053;BME280;37093;37.716;-122.060;2023-08-06T08:37:47;99872.56;;;20.56;45.75
51053;BME280;37093;37.716;-122.060;2023-08-06T08:40:16;99868.82;;;20.33;46.09
51053;BME280;37093;37.716;-122.060;2023-08-06T08:42:44;99863.91;;;20.72;45.79
51053;BME280;37093;37.716;-122.060;2023-08-06T08:45:14;99857.39;;;20.73;46.01
51053;BME280;37093;37.716;-122.060;2023-08-06T08:47:43;99857.09;;;20.43;47.42
51053;BME280;37093;37.716;-122.060;2023-08-06T08:50:11;99859.66;;;20.21;46.85
51053;BME280;37093;37.716;-122.060;2023-08-06T08:52:40;99857.28;;;20.55;46.27
51053;BME280;37093;37.716;-122.060;2023-08-06T08:55:09;99851.05;;;20.08;46.65
51053;BME280;37093;37.716;-122.060;2023-08-06T08:57:38;99851.93;;;20.28;48.04
51053;BME280;37093;37.716;-122.060;2023-08-06T09:00:07;99850.47;;;20.26;47.25
51053;BME280;37093;37.716;-122.060;2023-08-06T09:02:37;99847.31;;;20.24;47.01
51053;BME280;37093;37.716;-122.060;2023-08-06T09:05:07;99848.25;;;20.31;47.30
51053;BME280;37093;37.716;-122.060;2023-08-06T09:07:45;99847.33;;;20.40;47.27
51053;BME280;37093;37.716;-122.060;2023-08-06T09:10:17;99849.57;;;19.97;47.95
51053;BME280;37093;37.716;-122.060;2023-08-06T09:12:45;99850.89;;;20.01;48.20
51053;BME280;37093;37.716;-122.060;2023-08-06T09:15:14;99848.36;;;19.83;48.85
51053;BME280;37093;37.716;-122.060;2023-08-06T09:17:42;99847.63;;;19.65;49.66
51053;BME280;37093;37.716;-122.060;2023-08-06T09:20:12;99844.93;;;19.65;48.81
51053;BME280;37093;37.716;-122.060;2023-08-06T09:22:41;99844.93;;;19.82;48.23
51053;BME280;37093;37.716;-122.060;2023-08-06T09:25:10;99846.91;;;19.75;47.88
51053;BME280;37093;37.716;-122.060;2023-08-06T09:27:39;99843.26;;;19.92;47.04
51053;BME280;37093;37.716;-122.060;2023-08-06T09:30:08;99844.63;;;19.73;47.17
51053;BME280;37093;37.716;-122.060;2023-08-06T09:32:48;99844.69;;;20.08;47.06
51053;BME280;37093;37.716;-122.060;2023-08-06T09:35:17;99844.18;;;20.10;47.41
51053;BME280;37093;37.716;-122.060;2023-08-06T09:37:45;99841.62;;;19.95;48.15
51053;BME280;37093;37.716;-122.060;2023-08-06T09:40:32;99843.89;;;20.19;47.95
51053;BME280;37093;37.716;-122.060;2023-08-06T09:43:01;99842.96;;;19.67;47.86
51053;BME280;37093;37.716;-122.060;2023-08-06T09:45:31;99841.51;;;19.92;48.39
51053;BME280;37093;37.716;-122.060;2023-08-06T09:48:01;99843.53;;;19.67;49.15
51053;BME280;37093;37.716;-122.060;2023-08-06T09:50:32;99842.77;;;19.09;49.37
51053;BME280;37093;37.716;-122.060;2023-08-06T09:53:01;99845.01;;;19.84;48.47
51053;BME280;37093;37.716;-122.060;2023-08-06T09:55:30;99846.70;;;19.67;48.04
51053;BME280;37093;37.716;-122.060;2023-08-06T09:57:59;99842.16;;;19.77;47.67
51053;BME280;37093;37.716;-122.060;2023-08-06T10:00:27;99847.22;;;19.72;47.89
51053;BME280;37093;37.716;-122.060;2023-08-06T10:03:02;99850.79;;;19.76;47.38
51053;BME280;37093;37.716;-122.060;2023-08-06T10:05:32;99851.78;;;19.78;47.55
51053;BME280;37093;37.716;-122.060;2023-08-06T10:08:02;99846.96;;;19.56;48.58
51053;BME280;37093;37.716;-122.060;2023-08-06T10:10:31;99841.71;;;19.85;48.05
51053;BME280;37093;37.716;-122.060;2023-08-06T10:13:07;99838.97;;;19.69;47.40
51053;BME280;37093;37.716;-122.060;2023-08-06T10:15:35;99845.06;;;19.82;48.20
51053;BME280;37093;37.716;-122.060;2023-08-06T10:18:06;99848.10;;;19.57;48.04
51053;BME280;37093;37.716;-122.060;2023-08-06T10:20:35;99846.36;;;19.84;48.14
51053;BME280;37093;37.716;-122.060;2023-08-06T10:23:04;99845.97;;;19.38;48.17
51053;BME280;37093;37.716;-122.060;2023-08-06T10:25:34;99842.01;;;19.68;48.93
51053;BME280;37093;37.716;-122.060;2023-08-06T10:28:08;99836.84;;;18.99;51.33
51053;BME280;37093;37.716;-122.060;2023-08-06T10:30:43;99834.62;;;19.09;50.31
51053;BME280;37093;37.716;-122.060;2023-08-06T10:33:12;99831.47;;;19.43;49.38
51053;BME280;37093;37.716;-122.060;2023-08-06T10:35:43;99831.05;;;18.90;49.95
51053;BME280;37093;37.716;-122.060;2023-08-06T10:38:12;99836.39;;;19.33;48.56
51053;BME280;37093;37.716;-122.060;2023-08-06T10:41:00;99832.70;;;19.64;49.16
51053;BME280;37093;37.716;-122.060;2023-08-06T10:43:31;99831.42;;;19.69;49.18
51053;BME280;37093;37.716;-122.060;2023-08-06T10:46:01;99831.30;;;19.36;48.84
51053;BME280;37093;37.716;-122.060;2023-08-06T10:48:31;99831.71;;;19.10;49.98
51053;BME280;37093;37.716;-122.060;2023-08-06T10:51:00;99832.95;;;19.03;49.78
51053;BME280;37093;37.716;-122.060;2023-08-06T10:53:29;99829.95;;;19.20;49.96
51053;BME280;37093;37.716;-122.060;2023-08-06T10:55:59;99831.01;;;18.97;49.70
51053;BME280;37093;37.716;-122.060;2023-08-06T10:58:31;99825.14;;;19.39;48.90
51053;BME280;37093;37.716;-122.060;2023-08-06T11:01:00;99828.86;;;19.29;48.91
51053;BME280;37093;37.716;-122.060;2023-08-06T11:03:34;99827.65;;;19.35;49.40
51053;BME280;37093;37.716;-122.060;2023-08-06T11:06:02;99826.17;;;19.61;47.93
51053;BME280;37093;37.716;-122.060;2023-08-06T11:08:35;99828.74;;;19.70;48.24
51053;BME280;37093;37.716;-122.060;2023-08-06T11:11:11;99825.10;;;19.28;48.52
51053;BME280;37093;37.716;-122.060;2023-08-06T11:13:41;99823.33;;;19.59;48.08
51053;BME280;37093;37.716;-122.060;2023-08-06T11:16:09;99822.78;;;19.76;48.54
51053;BME280;37093;37.716;-122.060;2023-08-06T11:18:40;99820.91;;;19.49;47.99
51053;BME280;37093;37.716;-122.060;2023-08-06T11:21:09;99821.60;;;19.23;47.82
51053;BME280;37093;37.716;-122.060;2023-08-06T11:23:38;99818.21;;;19.69;48.54
51053;BME280;37093;37.716;-122.060;2023-08-06T11:26:08;99813.97;;;19.37;48.88
51053;BME280;37093;37.716;-122.060;2023-08-06T11:28:36;99814.63;;;19.09;51.44
51053;BME280;37093;37.716;-122.060;2023-08-06T11:31:05;99816.19;;;19.34;49.73
51053;BME280;37093;37.716;-122.060;2023-08-06T11:33:33;99815.02;;;19.79;49.19
51053;BME280;37093;37.716;-122.060;2023-08-06T11:36:02;99817.77;;;19.54;50.41
51053;BME280;37093;37.716;-122.060;2023-08-06T11:38:30;99817.10;;;19.56;49.57
51053;BME280;37093;37.716;-122.060;2023-08-06T11:40:59;99815.89;;;19.15;49.22
51053;BME280;37093;37.716;-122.060;2023-08-06T11:43:29;99813.92;;;19.68;48.91
51053;BME280;37093;37.716;-122.060;2023-08-06T11:45:58;99818.66;;;19.27;49.25
51053;BME280;37093;37.716;-122.060;2023-08-06T11:48:26;99819.59;;;19.75;48.94
51053;BME280;37093;37.716;-122.060;2023-08-06T11:50:55;99825.38;;;19.59;49.40
51053;BME280;37093;37.716;-122.060;2023-08-06T11:53:28;99821.84;;;19.86;49.37
51053;BME280;37093;37.716;-122.060;2023-08-06T11:55:56;99824.70;;;19.85;49.34
51053;BME280;37093;37.716;-122.060;2023-08-06T11:58:25;99822.97;;;19.41;49.08
51053;BME280;37093;37.716;-122.060;2023-08-06T12:00:53;99823.13;;;19.46;50.47
51053;BME280;37093;37.716;-122.060;2023-08-06T12:03:21;99825.80;;;19.58;49.22
51053;BME280;37093;37.716;-122.060;2023-08-06T12:05:54;99828.81;;;19.62;49.66
51053;BME280;37093;37.716;-122.060;2023-08-06T12:08:27;99833.89;;;19.75;48.64
51053;BME280;37093;37.716;-122.060;2023-08-06T12:10:56;99837.00;;;19.77;49.89
51053;BME280;37093;37.716;-122.060;2023-08-06T12:13:24;99837.12;;;19.52;49.65
51053;BME280;37093;37.716;-122.060;2023-08-06T12:15:54;99838.42;;;19.58;49.22
51053;BME280;37093;37.716;-122.060;2023-08-06T12:18:22;99838.47;;;19.34;49.56
51053;BME280;37093;37.716;-122.060;2023-08-06T12:20:51;99843.76;;;19.57;49.37
51053;BME280;37093;37.716;-122.060;2023-08-06T12:23:20;99845.38;;;19.85;48.82
51053;BME280;37093;37.716;-122.060;2023-08-06T12:25:48;99844.92;;;19.37;50.50
51053;BME280;37093;37.716;-122.060;2023-08-06T12:28:16;99847.18;;;19.75;50.60
51053;BME280;37093;37.716;-122.060;2023-08-06T12:30:45;99844.16;;;19.55;50.09
51053;BME280;37093;37.716;-122.060;2023-08-06T12:33:13;99842.80;;;19.69;50.26
51053;BME280;37093;37.716;-122.060;2023-08-06T12:35:41;99844.05;;;19.66;50.18
51053;BME280;37093;37.716;-122.060;2023-08-06T12:38:10;99839.99;;;19.50;51.21
51053;BME280;37093;37.716;-122.060;2023-08-06T12:40:38;99843.38;;;19.55;50.62
51053;BME280;37093;37.716;-122.060;2023-08-06T12:43:07;99845.25;;;19.60;50.28
51053;BME280;37093;37.716;-122.060;2023-08-06T12:45:35;99847.99;;;19.38;50.33
51053;BME280;37093;37.716;-122.060;2023-08-06T12:48:04;99847.81;;;19.57;49.36
51053;BME280;37093;37.716;-122.060;2023-08-06T12:50:32;99854.42;;;19.16;49.67
51053;BME280;37093;37.716;-122.060;2023-08-06T12:53:06;99862.60;;;19.42;49.61
51053;BME280;37093;37.716;-122.060;2023-08-06T12:55:34;99865.27;;;19.69;49.22